createdAt,value
2018-12-19T00:01:33.263Z,14.23
2018-12-19T00:04:01.954Z,14.03
2018-12-19T00:06:30.528Z,12.57
2018-12-19T00:09:03.112Z,12.27
2018-12-19T00:11:30.034Z,11.57
2018-12-19T00:13:58.830Z,12.43
2018-12-19T00:16:27.513Z,13.43
2018-12-19T00:18:56.059Z,15.97
2018-12-19T00:21:24.781Z,18.43
2018-12-19T00:23:53.505Z,20.00
2018-12-19T00:26:22.250Z,20.60
2018-12-19T00:28:50.886Z,19.43
2018-12-19T00:31:19.523Z,19.40
2018-12-19T00:33:48.072Z,19.03
2018-12-19T00:36:16.794Z,18.93
2018-12-19T00:38:45.555Z,18.13
2018-12-19T00:41:14.223Z,18.30
2018-12-19T00:43:43.160Z,19.20
2018-12-19T00:46:11.724Z,18.37
2018-12-19T00:48:40.489Z,18.27
2018-12-19T00:51:09.258Z,18.07
2018-12-19T00:53:37.897Z,17.83
2018-12-19T00:56:07.059Z,16.93
2018-12-19T00:58:35.988Z,16.80
2018-12-19T01:01:04.696Z,17.17
2018-12-19T01:03:33.328Z,18.23
2018-12-19T01:06:02.067Z,17.83
2018-12-19T01:08:30.731Z,17.60
2018-12-19T01:10:59.261Z,15.60
2018-12-19T01:13:28.154Z,16.30
2018-12-19T01:15:56.840Z,17.30
2018-12-19T01:18:25.836Z,17.17
2018-12-19T01:20:54.508Z,15.37
2018-12-19T01:23:23.196Z,15.57
2018-12-19T01:25:52.055Z,16.80
2018-12-19T01:28:20.644Z,16.27
2018-12-19T01:30:49.272Z,15.60
2018-12-19T01:33:17.834Z,16.60
2018-12-19T01:35:46.572Z,15.03
2018-12-19T01:38:15.233Z,15.43
2018-12-19T01:40:43.777Z,16.10
2018-12-19T01:43:12.376Z,17.70
2018-12-19T01:45:41.032Z,17.90
2018-12-19T01:48:09.970Z,17.80
2018-12-19T01:50:38.820Z,19.27
2018-12-19T01:53:07.638Z,18.53
2018-12-19T01:55:36.466Z,18.13
2018-12-19T01:58:05.493Z,17.77
2018-12-19T02:00:34.736Z,17.60
2018-12-19T02:03:03.552Z,17.93
2018-12-19T02:05:32.188Z,17.43
2018-12-19T02:08:01.022Z,19.33
2018-12-19T02:10:29.852Z,19.47
2018-12-19T02:12:58.596Z,20.70
2018-12-19T02:15:27.313Z,21.97
2018-12-19T02:17:55.883Z,21.67
2018-12-19T02:20:24.709Z,22.73
2018-12-19T02:22:53.290Z,23.40
2018-12-19T02:25:21.926Z,21.63
2018-12-19T02:27:51.059Z,21.50
2018-12-19T02:30:19.800Z,24.63
2018-12-19T02:32:48.554Z,23.10
2018-12-19T02:35:17.302Z,24.63
2018-12-19T02:37:45.909Z,23.57
2018-12-19T02:40:14.460Z,22.03
2018-12-19T02:42:43.023Z,22.70
2018-12-19T02:45:12.124Z,23.80
2018-12-19T02:47:40.955Z,21.83
2018-12-19T02:50:09.653Z,19.90
2018-12-19T02:52:38.323Z,20.20
2018-12-19T02:55:07.249Z,19.80
2018-12-19T02:57:35.862Z,20.87
2018-12-19T03:00:06.769Z,22.33
2018-12-19T03:02:35.519Z,20.23
2018-12-19T03:05:05.126Z,21.90
2018-12-19T03:07:33.971Z,21.57
2018-12-19T03:10:02.679Z,22.90
2018-12-19T03:12:31.404Z,22.37
2018-12-19T03:15:00.270Z,21.70
2018-12-19T03:17:28.857Z,23.20
2018-12-19T03:19:57.542Z,23.33
2018-12-19T03:22:26.417Z,24.77
2018-12-19T03:24:55.206Z,24.77
2018-12-19T03:27:24.039Z,23.33
2018-12-19T03:29:52.689Z,24.27
2018-12-19T03:32:21.395Z,26.53
2018-12-19T03:34:50.110Z,24.30
2018-12-19T03:37:18.701Z,24.33
2018-12-19T03:39:50.217Z,21.93
2018-12-19T03:42:17.931Z,23.63
2018-12-19T03:44:46.516Z,24.27
2018-12-19T03:47:15.259Z,22.77
2018-12-19T03:49:44.178Z,23.43
2018-12-19T03:52:12.913Z,23.80
2018-12-19T03:54:41.658Z,23.70
2018-12-19T03:57:11.078Z,23.57
2018-12-19T03:59:41.202Z,21.20
2018-12-19T04:02:10.438Z,20.30
2018-12-19T04:04:39.269Z,20.73
2018-12-19T04:07:07.983Z,19.77
2018-12-19T04:09:36.936Z,21.30
2018-12-19T04:12:05.963Z,21.57
2018-12-19T04:14:34.693Z,20.50
2018-12-19T04:17:03.533Z,22.27
2018-12-19T04:19:32.227Z,23.77
2018-12-19T04:22:01.123Z,24.53
2018-12-19T04:24:29.596Z,21.53
2018-12-19T04:26:58.071Z,20.53
2018-12-19T04:29:27.394Z,21.37
2018-12-19T04:31:56.289Z,19.77
2018-12-19T04:34:25.059Z,20.30
2018-12-19T04:36:54.478Z,21.57
2018-12-19T04:39:23.312Z,20.57
2018-12-19T04:41:51.947Z,21.93
2018-12-19T04:44:20.741Z,21.77
2018-12-19T04:46:49.288Z,21.00
2018-12-19T04:49:17.931Z,23.07
2018-12-19T04:51:46.699Z,24.70
2018-12-19T04:54:15.523Z,23.93
2018-12-19T04:56:44.102Z,22.27
2018-12-19T04:59:12.668Z,22.57
2018-12-19T05:01:41.234Z,22.20
2018-12-19T05:04:09.864Z,22.33
2018-12-19T05:06:38.502Z,21.67
2018-12-19T05:09:08.087Z,23.40
2018-12-19T05:11:36.854Z,23.00
2018-12-19T05:14:05.522Z,21.43
2018-12-19T05:16:34.220Z,20.57
2018-12-19T05:19:02.856Z,23.63
2018-12-19T05:21:31.684Z,23.43
2018-12-19T05:24:00.417Z,23.10
2018-12-19T05:26:29.021Z,22.17
2018-12-19T05:28:57.793Z,22.63
2018-12-19T05:31:26.343Z,25.33
2018-12-19T05:33:55.334Z,24.17
2018-12-19T05:36:23.892Z,25.07
2018-12-19T05:38:52.660Z,26.30
2018-12-19T05:41:21.362Z,26.00
2018-12-19T05:43:49.906Z,25.13
2018-12-19T05:46:18.501Z,32.97
2018-12-19T05:48:47.266Z,27.10
2018-12-19T05:51:16.295Z,28.03
2018-12-19T05:53:45.024Z,28.00
2018-12-19T05:56:17.106Z,25.43
2018-12-19T05:58:45.663Z,26.03
2018-12-19T06:01:14.302Z,24.10
2018-12-19T06:03:43.112Z,23.60
2018-12-19T06:06:11.843Z,25.30
2018-12-19T06:08:40.606Z,28.83
2018-12-19T06:11:09.600Z,27.67
2018-12-19T06:13:38.665Z,29.40
2018-12-19T06:16:07.369Z,33.10
2018-12-19T06:18:36.791Z,41.60
2018-12-19T06:21:05.538Z,33.37
2018-12-19T06:23:34.260Z,33.23
2018-12-19T06:26:03.148Z,28.43
2018-12-19T06:28:31.644Z,26.13
2018-12-19T06:31:00.285Z,30.10
2018-12-19T06:33:28.760Z,30.67
2018-12-19T06:35:57.631Z,31.03
2018-12-19T06:38:26.660Z,25.93
2018-12-19T06:40:55.321Z,25.67
2018-12-19T06:43:24.129Z,26.00
2018-12-19T06:45:52.641Z,30.40
2018-12-19T06:48:21.099Z,31.73
2018-12-19T06:50:49.715Z,33.13
2018-12-19T06:53:18.392Z,39.13
2018-12-19T06:55:46.894Z,37.93
2018-12-19T06:58:15.398Z,46.87
2018-12-19T07:00:43.987Z,51.93
2018-12-19T07:03:12.691Z,37.07
2018-12-19T07:05:41.373Z,36.73
2018-12-19T07:08:10.089Z,35.87
2018-12-19T07:10:39.321Z,37.80
2018-12-19T07:13:08.001Z,32.20
2018-12-19T07:15:36.981Z,34.83
2018-12-19T07:18:05.735Z,34.80
2018-12-19T07:20:34.450Z,44.60
2018-12-19T07:23:03.197Z,40.43
2018-12-19T07:25:31.915Z,45.63
2018-12-19T07:28:00.453Z,191.97
2018-12-19T07:30:29.217Z,83.17
2018-12-19T07:32:57.991Z,55.60
2018-12-19T07:35:26.581Z,51.23
2018-12-19T07:37:55.484Z,53.43
2018-12-19T07:40:24.240Z,47.13
2018-12-19T07:42:52.957Z,44.03
2018-12-19T07:45:21.699Z,41.83
2018-12-19T07:47:50.742Z,41.00
2018-12-19T07:50:19.359Z,42.20
2018-12-19T07:52:48.404Z,42.47
2018-12-19T07:55:16.981Z,45.47
2018-12-19T07:57:45.712Z,40.30
2018-12-19T08:00:14.579Z,39.03
2018-12-19T08:02:43.147Z,37.50
2018-12-19T08:05:11.849Z,40.13
2018-12-19T08:07:40.406Z,39.63
2018-12-19T08:10:09.316Z,41.40
2018-12-19T08:12:38.150Z,41.27
2018-12-19T08:15:06.980Z,38.47
2018-12-19T08:17:35.498Z,39.23
2018-12-19T08:20:05.037Z,38.23
2018-12-19T08:22:33.560Z,39.37
2018-12-19T08:25:02.313Z,28.70
2018-12-19T08:27:30.946Z,28.20
2018-12-19T08:29:59.776Z,30.03
2018-12-19T08:32:28.608Z,30.93
2018-12-19T08:34:57.171Z,30.43
2018-12-19T08:37:25.787Z,30.63
2018-12-19T08:39:54.479Z,31.07
2018-12-19T08:42:23.133Z,32.43
2018-12-19T08:44:51.768Z,33.67
2018-12-19T08:47:20.420Z,28.90
2018-12-19T08:49:48.977Z,25.27
2018-12-19T08:52:17.669Z,25.53
2018-12-19T08:54:46.325Z,24.53
2018-12-19T08:57:15.360Z,25.20
2018-12-19T08:59:44.168Z,23.20
2018-12-19T09:02:12.825Z,23.67
2018-12-19T09:04:41.654Z,25.00
2018-12-19T09:07:10.423Z,29.60
2018-12-19T09:09:39.443Z,48.83
2018-12-19T09:12:07.998Z,63.63
2018-12-19T09:14:36.698Z,53.27
2018-12-19T09:17:05.921Z,55.70
2018-12-19T09:19:34.960Z,52.60
2018-12-19T09:22:04.176Z,47.90
2018-12-19T09:24:33.100Z,31.93
2018-12-19T09:27:01.732Z,27.80
2018-12-19T09:29:30.372Z,29.13
2018-12-19T09:31:59.003Z,27.83
2018-12-19T09:34:27.835Z,27.30
2018-12-19T09:36:56.471Z,27.60
2018-12-19T09:39:25.107Z,26.03
2018-12-19T09:41:53.937Z,23.60
2018-12-19T09:44:22.967Z,21.57
2018-12-19T09:46:51.861Z,21.87
2018-12-19T09:49:20.515Z,21.83
2018-12-19T09:51:49.140Z,22.67
2018-12-19T09:54:17.901Z,18.67
2018-12-19T09:56:46.538Z,18.67
2018-12-19T09:59:15.129Z,20.03
2018-12-19T10:01:43.678Z,17.87
2018-12-19T10:04:12.419Z,19.07
2018-12-19T10:06:41.080Z,19.07
2018-12-19T10:09:14.753Z,20.23
2018-12-19T10:11:40.685Z,20.77
2018-12-19T10:14:09.535Z,21.27
2018-12-19T10:16:38.255Z,18.37
2018-12-19T10:19:07.521Z,16.30
2018-12-19T10:21:36.169Z,16.80
2018-12-19T10:24:04.782Z,14.90
2018-12-19T10:26:33.473Z,15.00
2018-12-19T10:29:02.141Z,15.13
2018-12-19T10:31:30.774Z,13.67
2018-12-19T10:33:59.325Z,15.10
2018-12-19T10:36:33.549Z,14.37
2018-12-19T10:39:02.113Z,14.57
2018-12-19T10:41:30.929Z,14.30
2018-12-19T10:43:59.597Z,14.70
2018-12-19T10:46:28.458Z,14.87
2018-12-19T10:48:57.080Z,13.83
2018-12-19T10:51:25.755Z,14.47
2018-12-19T10:53:54.389Z,14.00
2018-12-19T10:56:22.959Z,13.87
2018-12-19T10:58:51.627Z,13.97
2018-12-19T11:01:20.296Z,15.03
2018-12-19T11:03:49.327Z,13.97
2018-12-19T11:06:17.881Z,14.97
2018-12-19T11:08:46.596Z,13.10
2018-12-19T11:11:15.429Z,12.20
2018-12-19T11:13:43.942Z,12.43
2018-12-19T11:16:12.705Z,12.57
2018-12-19T11:18:41.500Z,10.97
2018-12-19T11:21:10.259Z,11.40
2018-12-19T11:23:38.804Z,8.77
2018-12-19T11:26:07.440Z,9.80
2018-12-19T11:28:36.072Z,8.90
2018-12-19T11:31:04.777Z,9.93
2018-12-19T11:33:33.543Z,8.70
2018-12-19T11:36:02.373Z,8.17
2018-12-19T11:38:31.127Z,8.33
2018-12-19T11:40:59.839Z,7.13
2018-12-19T11:43:28.680Z,8.17
2018-12-19T11:45:57.229Z,8.33
2018-12-19T11:48:25.907Z,7.77
2018-12-19T11:50:54.770Z,8.37
2018-12-19T11:53:23.334Z,7.40
2018-12-19T11:55:52.045Z,6.20
2018-12-19T11:58:20.567Z,5.73
2018-12-19T12:00:49.512Z,6.90
2018-12-19T12:03:18.155Z,5.63
2018-12-19T12:05:46.784Z,5.33
2018-12-19T12:08:15.393Z,5.17
2018-12-19T12:10:44.056Z,4.83
2018-12-19T12:13:12.850Z,5.20
2018-12-19T12:15:41.526Z,4.73
2018-12-19T12:18:10.105Z,4.80
2018-12-19T12:20:38.989Z,4.00
2018-12-19T12:23:07.833Z,5.00
2018-12-19T12:25:36.521Z,4.37
2018-12-19T12:28:05.025Z,4.67
2018-12-19T12:30:33.730Z,3.97
2018-12-19T12:33:03.347Z,4.13
2018-12-19T12:35:32.107Z,3.97
2018-12-19T12:38:00.746Z,2.87
2018-12-19T12:40:29.418Z,3.53
2018-12-19T12:42:58.085Z,3.90
2018-12-19T12:45:26.853Z,3.73
2018-12-19T12:47:55.751Z,3.50
2018-12-19T12:50:24.387Z,3.77
2018-12-19T12:52:53.021Z,3.50
2018-12-19T12:55:21.865Z,3.80
2018-12-19T12:57:50.797Z,2.63
2018-12-19T13:00:19.478Z,3.00
2018-12-19T13:02:48.153Z,2.87
2018-12-19T13:05:16.982Z,2.43
2018-12-19T13:07:45.814Z,2.63
2018-12-19T13:10:14.647Z,2.30
2018-12-19T13:12:43.189Z,2.20
2018-12-19T13:15:14.007Z,2.30
2018-12-19T13:17:43.177Z,2.67
2018-12-19T13:20:11.743Z,2.53
2018-12-19T13:22:40.337Z,2.27
2018-12-19T13:25:09.212Z,2.20
2018-12-19T13:27:37.971Z,1.90
2018-12-19T13:30:08.489Z,2.10
2018-12-19T13:32:37.280Z,2.27
2018-12-19T13:35:06.047Z,2.40
2018-12-19T13:37:34.748Z,2.30
2018-12-19T13:40:03.630Z,2.00
2018-12-19T13:42:32.377Z,2.03
2018-12-19T13:45:01.049Z,2.30
2018-12-19T13:47:29.680Z,2.20
2018-12-19T13:49:58.476Z,1.73
2018-12-19T13:52:27.154Z,1.80
2018-12-19T13:54:55.787Z,1.70
2018-12-19T13:57:24.420Z,2.00
2018-12-19T13:59:53.348Z,1.80
2018-12-19T14:02:22.011Z,2.03
2018-12-19T14:04:50.980Z,2.13
2018-12-19T14:07:19.750Z,2.33
2018-12-19T14:09:48.645Z,1.90
2018-12-19T14:12:17.331Z,2.80
2018-12-19T14:14:45.926Z,2.60
2018-12-19T14:17:14.648Z,2.00
2018-12-19T14:19:43.233Z,8.17
2018-12-19T14:22:11.825Z,21.47
2018-12-19T14:24:41.982Z,2.30
2018-12-19T14:27:10.992Z,1.90
2018-12-19T14:29:39.629Z,1.90
2018-12-19T14:32:08.198Z,1.67
2018-12-19T14:34:36.903Z,1.50
2018-12-19T14:37:05.455Z,2.00
2018-12-19T14:39:34.170Z,2.87
2018-12-19T14:42:03.003Z,1.77
2018-12-19T14:44:31.557Z,2.00
2018-12-19T14:47:00.274Z,1.70
2018-12-19T14:49:28.909Z,1.60
2018-12-19T14:51:57.544Z,1.50
2018-12-19T14:54:26.179Z,1.60
2018-12-19T14:56:54.813Z,1.70
2018-12-19T14:59:23.361Z,1.97
2018-12-19T15:01:52.084Z,1.80
2018-12-19T15:04:20.917Z,2.40
2018-12-19T15:06:49.552Z,1.83
2018-12-19T15:09:18.187Z,1.87
2018-12-19T15:11:46.747Z,1.77
2018-12-19T15:14:15.390Z,1.70
2018-12-19T15:16:44.092Z,3.30
2018-12-19T15:19:12.651Z,1.57
2018-12-19T15:21:41.363Z,2.07
2018-12-19T15:24:10.112Z,1.60
2018-12-19T15:26:38.801Z,1.30
2018-12-19T15:29:07.467Z,1.30
2018-12-19T15:31:36.173Z,1.70
2018-12-19T15:34:04.933Z,1.57
2018-12-19T15:36:34.095Z,1.60
2018-12-19T15:39:03.057Z,1.60
2018-12-19T15:41:31.805Z,1.50
2018-12-19T15:44:00.460Z,2.10
2018-12-19T15:46:29.095Z,2.20
2018-12-19T15:48:57.659Z,2.00
2018-12-19T15:51:26.274Z,2.07
2018-12-19T15:53:54.999Z,1.90
2018-12-19T15:56:23.559Z,2.20
2018-12-19T15:58:52.269Z,2.10
2018-12-19T16:01:20.907Z,1.83
2018-12-19T16:03:49.463Z,1.80
2018-12-19T16:06:18.054Z,1.33
2018-12-19T16:08:46.615Z,1.20
2018-12-19T16:11:15.448Z,0.90
2018-12-19T16:13:44.480Z,1.20
2018-12-19T16:16:13.301Z,0.97
2018-12-19T16:18:41.810Z,1.00
2018-12-19T16:21:10.457Z,0.80
2018-12-19T16:23:39.174Z,0.87
2018-12-19T16:26:07.850Z,0.90
2018-12-19T16:28:36.409Z,1.10
2018-12-19T16:31:05.119Z,0.90
2018-12-19T16:33:33.755Z,1.00
2018-12-19T16:36:02.395Z,1.17
2018-12-19T16:38:31.026Z,1.10
2018-12-19T16:41:00.250Z,1.00
2018-12-19T16:43:28.989Z,0.93
2018-12-19T16:45:57.719Z,1.00
2018-12-19T16:48:26.353Z,1.50
2018-12-19T16:50:54.919Z,1.07
2018-12-19T16:53:23.533Z,1.70
2018-12-19T16:55:51.975Z,1.40
2018-12-19T16:58:20.698Z,1.70
2018-12-19T17:00:49.335Z,2.20
2018-12-19T17:03:17.968Z,2.13
2018-12-19T17:05:46.522Z,1.70
2018-12-19T17:08:15.043Z,1.50
2018-12-19T17:10:43.603Z,1.70
2018-12-19T17:13:12.314Z,1.47
2018-12-19T17:15:40.949Z,1.63
2018-12-19T17:18:09.512Z,1.50
2018-12-19T17:20:38.100Z,1.90
2018-12-19T17:23:06.858Z,1.80
2018-12-19T17:25:35.660Z,3.10
2018-12-19T17:28:04.399Z,1.50
2018-12-19T17:30:33.548Z,1.90
2018-12-19T17:33:02.114Z,1.93
2018-12-19T17:35:30.781Z,4.03
2018-12-19T17:37:59.650Z,2.13
2018-12-19T17:40:28.215Z,4.90
2018-12-19T17:42:59.538Z,2.90
2018-12-19T17:45:27.720Z,3.70
2018-12-19T17:47:56.463Z,4.60
2018-12-19T17:50:25.187Z,4.00
2018-12-19T17:52:53.754Z,5.47
2018-12-19T17:55:22.368Z,5.77
2018-12-19T17:57:51.613Z,4.90
2018-12-19T18:00:20.319Z,6.47
2018-12-19T18:02:48.957Z,5.30
2018-12-19T18:05:17.713Z,4.33
2018-12-19T18:07:46.376Z,5.13
2018-12-19T18:10:15.059Z,2.87
2018-12-19T18:12:43.665Z,2.80
2018-12-19T18:15:12.347Z,3.37
2018-12-19T18:17:41.173Z,3.20
2018-12-19T18:20:09.993Z,2.97
2018-12-19T18:22:38.823Z,2.50
2018-12-19T18:25:07.774Z,2.40
2018-12-19T18:27:36.489Z,2.67
2018-12-19T18:30:07.536Z,3.10
2018-12-19T18:32:35.951Z,3.40
2018-12-19T18:35:06.000Z,4.40
2018-12-19T18:37:34.761Z,5.50
2018-12-19T18:40:03.858Z,4.37
2018-12-19T18:42:32.544Z,3.67
2018-12-19T18:45:01.271Z,3.47
2018-12-19T18:47:29.896Z,3.50
2018-12-19T18:49:58.728Z,3.40
2018-12-19T18:52:27.364Z,4.10
2018-12-19T18:54:56.156Z,3.80
2018-12-19T18:57:24.949Z,5.07
2018-12-19T18:59:53.586Z,5.93
2018-12-19T19:02:22.495Z,5.30
2018-12-19T19:04:51.050Z,5.17
2018-12-19T19:07:19.765Z,7.17
2018-12-19T19:09:49.078Z,6.27
2018-12-19T19:12:18.020Z,5.60
2018-12-19T19:14:46.658Z,5.40
2018-12-19T19:17:15.290Z,5.50
2018-12-19T19:19:43.905Z,5.07
2018-12-19T19:22:12.673Z,5.00
2018-12-19T19:24:41.393Z,6.50
2018-12-19T19:27:09.958Z,7.53
2018-12-19T19:29:38.470Z,6.97
2018-12-19T19:32:07.299Z,7.10
2018-12-19T19:34:35.934Z,7.00
2018-12-19T19:37:04.653Z,7.07
2018-12-19T19:39:33.369Z,5.97
2018-12-19T19:42:02.041Z,5.77
2018-12-19T19:44:30.870Z,5.17
2018-12-19T19:46:59.701Z,5.87
2018-12-19T19:49:28.336Z,6.77
2018-12-19T19:51:56.973Z,6.10
2018-12-19T19:54:25.807Z,7.17
2018-12-19T19:56:54.418Z,8.20
2018-12-19T19:59:22.984Z,8.47
2018-12-19T20:01:51.711Z,10.87
2018-12-19T20:04:20.542Z,7.63
2018-12-19T20:06:49.087Z,5.23
2018-12-19T20:09:17.616Z,6.20
2018-12-19T20:11:46.251Z,6.07
2018-12-19T20:14:14.862Z,5.13
2018-12-19T20:16:49.153Z,6.53
2018-12-19T20:19:17.623Z,6.60
2018-12-19T20:21:46.296Z,8.07
2018-12-19T20:24:14.934Z,8.03
2018-12-19T20:26:43.698Z,12.47
2018-12-19T20:29:12.400Z,18.90
2018-12-19T20:31:41.108Z,17.83
2018-12-19T20:34:09.774Z,20.83
2018-12-19T20:36:38.502Z,20.63
2018-12-19T20:39:08.494Z,20.80
2018-12-19T20:41:37.253Z,21.50
2018-12-19T20:44:05.918Z,22.67
2018-12-19T20:46:34.615Z,23.60
2018-12-19T20:49:03.450Z,25.67
2018-12-19T20:51:31.996Z,27.97
2018-12-19T20:54:00.736Z,28.20
2018-12-19T20:56:29.354Z,25.97
2018-12-19T20:58:58.200Z,23.00
2018-12-19T21:01:26.820Z,23.37
2018-12-19T21:03:55.707Z,24.93
2018-12-19T21:06:24.450Z,25.67
2018-12-19T21:08:53.418Z,27.83
2018-12-19T21:11:21.951Z,27.63
2018-12-19T21:13:50.587Z,28.27
2018-12-19T21:16:21.389Z,34.77
2018-12-19T21:18:52.183Z,60.43
2018-12-19T21:21:20.819Z,50.67
2018-12-19T21:23:49.645Z,49.23
2018-12-19T21:26:18.213Z,44.67
2018-12-19T21:28:46.882Z,67.73
2018-12-19T21:31:15.623Z,72.07
2018-12-19T21:33:44.420Z,65.10
2018-12-19T21:36:13.611Z,54.23
2018-12-19T21:38:42.509Z,47.63
2018-12-19T21:41:11.080Z,43.53
2018-12-19T21:43:39.857Z,43.93
2018-12-19T21:46:08.539Z,50.13
2018-12-19T21:48:37.184Z,54.83
2018-12-19T21:51:05.819Z,48.80
2018-12-19T21:53:34.650Z,56.60
2018-12-19T21:56:03.246Z,56.67
2018-12-19T21:58:31.969Z,62.97
2018-12-19T22:01:00.722Z,57.03
2018-12-19T22:03:30.621Z,50.97
2018-12-19T22:05:59.067Z,48.07
2018-12-19T22:08:27.845Z,45.80
2018-12-19T22:10:56.477Z,38.63
2018-12-19T22:13:25.289Z,36.93
2018-12-19T22:15:54.141Z,35.97
2018-12-19T22:18:28.991Z,40.80
2018-12-19T22:20:57.981Z,44.80
2018-12-19T22:23:27.807Z,42.40
2018-12-19T22:25:56.451Z,42.83
2018-12-19T22:28:25.392Z,47.87
2018-12-19T22:30:54.404Z,46.23
2018-12-19T22:33:23.790Z,45.20
2018-12-19T22:35:52.655Z,37.57
2018-12-19T22:38:21.291Z,34.37
2018-12-19T22:40:49.928Z,36.27
2018-12-19T22:43:18.671Z,32.13
2018-12-19T22:45:47.215Z,27.50
2018-12-19T22:48:16.369Z,24.63
2018-12-19T22:50:45.256Z,25.70
2018-12-19T22:53:14.026Z,23.03
2018-12-19T22:55:42.912Z,22.40
2018-12-19T22:58:11.759Z,21.13
2018-12-19T23:00:46.792Z,18.73
2018-12-19T23:03:15.452Z,19.53
2018-12-19T23:05:49.576Z,17.97
2018-12-19T23:08:19.976Z,16.93
2018-12-19T23:10:49.025Z,16.47
2018-12-19T23:13:17.738Z,15.53
2018-12-19T23:15:46.276Z,15.40
2018-12-19T23:18:20.625Z,15.33
2018-12-19T23:20:49.885Z,15.17
2018-12-19T23:23:18.590Z,14.13
2018-12-19T23:25:47.580Z,15.50
2018-12-19T23:28:16.804Z,17.40
2018-12-19T23:30:45.474Z,19.27
2018-12-19T23:33:14.453Z,19.40
2018-12-19T23:35:43.198Z,18.77
2018-12-19T23:38:11.915Z,18.00
2018-12-19T23:40:42.114Z,21.27
2018-12-19T23:43:11.091Z,22.17
2018-12-19T23:45:39.805Z,19.63
2018-12-19T23:48:08.343Z,17.03
2018-12-19T23:50:37.273Z,12.63
2018-12-19T23:53:06.227Z,11.33
2018-12-19T23:55:35.119Z,10.70
2018-12-19T23:58:03.992Z,13.30
